sensor_id;sensor_type;location;lat;lon;timestamp;pressure;altitude;pressure_sealevel;temperature;humidity
49055;BME280;35405;52.344;14.530;2023-04-07T05:58:06;101081.66;;;1.98;100.00
49055;BME280;35405;52.344;14.530;2023-04-07T06:06:14;101093.63;;;2.33;100.00
49055;BME280;35405;52.344;14.530;2023-04-07T06:08:39;101091.41;;;2.29;100.00
49055;BME280;35405;52.344;14.530;2023-04-07T06:11:05;101094.75;;;2.25;100.00
49055;BME280;35405;52.344;14.530;2023-04-07T06:13:30;101089.56;;;2.42;100.00
49055;BME280;35405;52.344;14.530;2023-04-07T06:15:55;101092.88;;;2.44;100.00
49055;BME280;35405;52.344;14.530;2023-04-07T06:18:20;101089.47;;;2.48;100.00
49055;BME280;35405;52.344;14.530;2023-04-07T06:20:46;101093.22;;;2.47;100.00
49055;BME280;35405;52.344;14.530;2023-04-07T06:23:17;101091.97;;;2.32;100.00
49055;BME280;35405;52.344;14.530;2023-04-07T06:25:45;101090.78;;;2.27;100.00
49055;BME280;35405;52.344;14.530;2023-04-07T06:28:11;101092.94;;;2.37;100.00
49055;BME280;35405;52.344;14.530;2023-04-07T06:30:37;101099.41;;;2.48;100.00
49055;BME280;35405;52.344;14.530;2023-04-07T06:33:05;101098.50;;;2.54;100.00
49055;BME280;35405;52.344;14.530;2023-04-07T06:35:30;101092.41;;;2.59;100.00
49055;BME280;35405;52.344;14.530;2023-04-07T06:37:56;101087.97;;;2.52;100.00
49055;BME280;35405;52.344;14.530;2023-04-07T06:40:21;101093.69;;;2.44;100.00
49055;BME280;35405;52.344;14.530;2023-04-07T06:42:47;101101.50;;;2.46;100.00
49055;BME280;35405;52.344;14.530;2023-04-07T06:45:15;101095.22;;;2.52;100.00
49055;BME280;35405;52.344;14.530;2023-04-07T06:47:41;101097.13;;;2.63;100.00
49055;BME280;35405;52.344;14.530;2023-04-07T06:50:06;101097.84;;;2.70;100.00
49055;BME280;35405;52.344;14.530;2023-04-07T06:52:31;101099.75;;;2.82;100.00
49055;BME280;35405;52.344;14.530;2023-04-07T06:54:59;101099.16;;;2.91;100.00
49055;BME280;35405;52.344;14.530;2023-04-07T06:57:25;101098.84;;;3.00;100.00
49055;BME280;35405;52.344;14.530;2023-04-07T06:59:51;101098.75;;;3.06;100.00
49055;BME280;35405;52.344;14.530;2023-04-07T07:02:16;101107.63;;;3.07;100.00
49055;BME280;35405;52.344;14.530;2023-04-07T07:04:42;101093.84;;;3.15;100.00
49055;BME280;35405;52.344;14.530;2023-04-07T07:10:11;101108.00;;;3.10;100.00
49055;BME280;35405;52.344;14.530;2023-04-07T07:12:36;101107.75;;;3.24;100.00
49055;BME280;35405;52.344;14.530;2023-04-07T07:15:05;101110.94;;;3.44;100.00
49055;BME280;35405;52.344;14.530;2023-04-07T07:18:04;101105.91;;;3.71;100.00
49055;BME280;35405;52.344;14.530;2023-04-07T07:20:35;101102.13;;;3.84;100.00
49055;BME280;35405;52.344;14.530;2023-04-07T07:23:01;101116.66;;;3.83;100.00
49055;BME280;35405;52.344;14.530;2023-04-07T07:25:26;101108.66;;;3.88;100.00
49055;BME280;35405;52.344;14.530;2023-04-07T07:31:08;101113.25;;;3.64;100.00
49055;BME280;35405;52.344;14.530;2023-04-07T07:34:07;101116.88;;;3.58;100.00
49055;BME280;35405;52.344;14.530;2023-04-07T07:36:32;101113.34;;;3.93;100.00
49055;BME280;35405;52.344;14.530;2023-04-07T07:54:02;101138.63;;;4.03;100.00
49055;BME280;35405;52.344;14.530;2023-04-07T08:05:57;101144.56;;;4.57;100.00
49055;BME280;35405;52.344;14.530;2023-04-07T08:08:22;101140.25;;;4.45;100.00
49055;BME280;35405;52.344;14.530;2023-04-07T08:10:48;101141.22;;;4.39;100.00
49055;BME280;35405;52.344;14.530;2023-04-07T08:13:15;101141.47;;;4.37;100.00
49055;BME280;35405;52.344;14.530;2023-04-07T08:15:41;101144.25;;;4.42;100.00
49055;BME280;35405;52.344;14.530;2023-04-07T08:18:07;101142.41;;;4.31;100.00
49055;BME280;35405;52.344;14.530;2023-04-07T08:20:32;101147.22;;;4.29;100.00
49055;BME280;35405;52.344;14.530;2023-04-07T08:23:32;101149.28;;;4.39;100.00
49055;BME280;35405;52.344;14.530;2023-04-07T08:26:00;101144.16;;;4.37;100.00
49055;BME280;35405;52.344;14.530;2023-04-07T08:28:26;101133.44;;;4.54;100.00
49055;BME280;35405;52.344;14.530;2023-04-07T08:30:51;101141.94;;;4.63;100.00
49055;BME280;35405;52.344;14.530;2023-04-07T08:33:17;101149.16;;;4.74;100.00
49055;BME280;35405;52.344;14.530;2023-04-07T08:35:42;101149.94;;;4.57;100.00
49055;BME280;35405;52.344;14.530;2023-04-07T08:38:10;101149.03;;;4.80;100.00
49055;BME280;35405;52.344;14.530;2023-04-07T08:40:39;101153.50;;;4.75;100.00
49055;BME280;35405;52.344;14.530;2023-04-07T08:56:18;101150.66;;;4.53;100.00
49055;BME280;35405;52.344;14.530;2023-04-07T08:58:45;101161.00;;;4.44;100.00
49055;BME280;35405;52.344;14.530;2023-04-07T09:01:10;101158.88;;;4.46;100.00
49055;BME280;35405;52.344;14.530;2023-04-07T09:03:36;101159.56;;;4.53;100.00
49055;BME280;35405;52.344;14.530;2023-04-07T09:06:02;101162.16;;;4.48;100.00
49055;BME280;35405;52.344;14.530;2023-04-07T09:08:30;101154.13;;;4.37;100.00
49055;BME280;35405;52.344;14.530;2023-04-07T09:10:55;101161.63;;;4.23;100.00
49055;BME280;35405;52.344;14.530;2023-04-07T09:13:24;101162.94;;;4.08;100.00
49055;BME280;35405;52.344;14.530;2023-04-07T09:15:49;101157.56;;;3.85;100.00
49055;BME280;35405;52.344;14.530;2023-04-07T09:18:15;101146.59;;;3.75;100.00
49055;BME280;35405;52.344;14.530;2023-04-07T09:20:53;101158.97;;;3.87;100.00
49055;BME280;35405;52.344;14.530;2023-04-07T09:26:21;101151.50;;;3.78;100.00
49055;BME280;35405;52.344;14.530;2023-04-07T09:29:07;101141.91;;;3.82;100.00
49055;BME280;35405;52.344;14.530;2023-04-07T09:31:44;101152.56;;;4.00;100.00
49055;BME280;35405;52.344;14.530;2023-04-07T09:34:24;101142.97;;;4.33;100.00
49055;BME280;35405;52.344;14.530;2023-04-07T09:36:50;101142.28;;;4.66;100.00
49055;BME280;35405;52.344;14.530;2023-04-07T09:39:16;101139.06;;;4.81;100.00
49055;BME280;35405;52.344;14.530;2023-04-07T09:41:44;101134.84;;;4.85;100.00
49055;BME280;35405;52.344;14.530;2023-04-07T09:44:09;101136.34;;;4.81;100.00
49055;BME280;35405;52.344;14.530;2023-04-07T09:46:35;101131.56;;;4.83;100.00
49055;BME280;35405;52.344;14.530;2023-04-07T09:49:03;101138.25;;;4.80;100.00
49055;BME280;35405;52.344;14.530;2023-04-07T09:51:29;101133.19;;;4.84;100.00
49055;BME280;35405;52.344;14.530;2023-04-07T09:53:55;101141.63;;;4.88;100.00
49055;BME280;35405;52.344;14.530;2023-04-07T09:56:20;101151.75;;;4.69;100.00
49055;BME280;35405;52.344;14.530;2023-04-07T09:58:46;101148.03;;;4.70;100.00
49055;BME280;35405;52.344;14.530;2023-04-07T10:01:15;101142.22;;;4.78;100.00
49055;BME280;35405;52.344;14.530;2023-04-07T10:04:01;101142.59;;;4.81;100.00
49055;BME280;35405;52.344;14.530;2023-04-07T10:06:33;101141.84;;;4.86;100.00
49055;BME280;35405;52.344;14.530;2023-04-07T10:11:47;101149.91;;;5.15;100.00
49055;BME280;35405;52.344;14.530;2023-04-07T10:14:14;101145.50;;;5.25;100.00
49055;BME280;35405;52.344;14.530;2023-04-07T10:16:40;101141.06;;;5.19;100.00
49055;BME280;35405;52.344;14.530;2023-04-07T10:19:14;101143.59;;;5.26;100.00
49055;BME280;35405;52.344;14.530;2023-04-07T10:21:41;101145.88;;;5.17;100.00
49055;BME280;35405;52.344;14.530;2023-04-07T10:27:10;101139.78;;;5.39;100.00
49055;BME280;35405;52.344;14.530;2023-04-07T10:29:41;101142.81;;;5.42;100.00
49055;BME280;35405;52.344;14.530;2023-04-07T10:32:07;101140.44;;;5.63;100.00
49055;BME280;35405;52.344;14.530;2023-04-07T10:37:14;101139.38;;;6.03;100.00
49055;BME280;35405;52.344;14.530;2023-04-07T10:39:42;101131.91;;;6.10;100.00
49055;BME280;35405;52.344;14.530;2023-04-07T10:44:58;101138.94;;;5.55;100.00
49055;BME280;35405;52.344;14.530;2023-04-07T10:47:24;101134.75;;;5.64;100.00
49055;BME280;35405;52.344;14.530;2023-04-07T10:50:35;101146.47;;;5.36;100.00
49055;BME280;35405;52.344;14.530;2023-04-07T10:52:38;101146.00;;;5.39;100.00
49055;BME280;35405;52.344;14.530;2023-04-07T11:00:35;101136.00;;;4.61;100.00
49055;BME280;35405;52.344;14.530;2023-04-07T11:03:08;101133.72;;;4.69;100.00
49055;BME280;35405;52.344;14.530;2023-04-07T11:05:34;101128.09;;;4.71;100.00
49055;BME280;35405;52.344;14.530;2023-04-07T11:08:06;101140.75;;;4.30;100.00
49055;BME280;35405;52.344;14.530;2023-04-07T11:10:33;101136.28;;;3.95;100.00
49055;BME280;35405;52.344;14.530;2023-04-07T11:13:07;101140.59;;;3.96;100.00
49055;BME280;35405;52.344;14.530;2023-04-07T11:15:36;101141.94;;;3.58;100.00
49055;BME280;35405;52.344;14.530;2023-04-07T11:18:12;101138.03;;;3.42;100.00
49055;BME280;35405;52.344;14.530;2023-04-07T11:20:59;101141.34;;;3.44;100.00
49055;BME280;35405;52.344;14.530;2023-04-07T11:23:23;101143.81;;;3.46;100.00
49055;BME280;35405;52.344;14.530;2023-04-07T11:25:50;101135.03;;;3.51;100.00
49055;BME280;35405;52.344;14.530;2023-04-07T11:28:16;101140.66;;;3.49;100.00
49055;BME280;35405;52.344;14.530;2023-04-07T11:30:53;101138.78;;;3.50;100.00
49055;BME280;35405;52.344;14.530;2023-04-07T11:33:22;101134.09;;;3.57;100.00
49055;BME280;35405;52.344;14.530;2023-04-07T11:35:54;101134.09;;;3.69;100.00
49055;BME280;35405;52.344;14.530;2023-04-07T11:38:23;101124.72;;;3.59;100.00
49055;BME280;35405;52.344;14.530;2023-04-07T11:40:50;101124.13;;;3.57;100.00
49055;BME280;35405;52.344;14.530;2023-04-07T11:43:22;101113.84;;;3.54;100.00
49055;BME280;35405;52.344;14.530;2023-04-07T11:46:04;101120.88;;;3.32;100.00
49055;BME280;35405;52.344;14.530;2023-04-07T11:48:32;101116.06;;;3.10;100.00
49055;BME280;35405;52.344;14.530;2023-04-07T11:51:01;101106.19;;;2.92;100.00
49055;BME280;35405;52.344;14.530;2023-04-07T11:53:33;101101.28;;;2.89;100.00
49055;BME280;35405;52.344;14.530;2023-04-07T11:58:28;101081.94;;;3.11;100.00
49055;BME280;35405;52.344;14.530;2023-04-07T12:00:54;101074.69;;;3.23;100.00
49055;BME280;35405;52.344;14.530;2023-04-07T12:03:20;101072.59;;;3.13;100.00
49055;BME280;35405;52.344;14.530;2023-04-07T12:05:45;101064.88;;;3.17;100.00
49055;BME280;35405;52.344;14.530;2023-04-07T12:08:12;101067.91;;;3.20;100.00
49055;BME280;35405;52.344;14.530;2023-04-07T12:10:44;101063.34;;;3.09;100.00
49055;BME280;35405;52.344;14.530;2023-04-07T12:13:12;101062.06;;;3.12;100.00
49055;BME280;35405;52.344;14.530;2023-04-07T12:15:41;101059.25;;;3.18;100.00
49055;BME280;35405;52.344;14.530;2023-04-07T12:18:13;101052.03;;;3.19;100.00
49055;BME280;35405;52.344;14.530;2023-04-07T12:20:39;101061.25;;;3.11;100.00
49055;BME280;35405;52.344;14.530;2023-04-07T12:23:08;101052.72;;;3.14;100.00
49055;BME280;35405;52.344;14.530;2023-04-07T12:25:33;101046.88;;;3.17;100.00
49055;BME280;35405;52.344;14.530;2023-04-07T12:28:05;101044.88;;;3.25;100.00
49055;BME280;35405;52.344;14.530;2023-04-07T12:30:30;101036.81;;;3.36;100.00
49055;BME280;35405;52.344;14.530;2023-04-07T12:33:12;101033.78;;;3.44;100.00
49055;BME280;35405;52.344;14.530;2023-04-07T12:35:40;101026.50;;;3.57;100.00
49055;BME280;35405;52.344;14.530;2023-04-07T12:38:11;101023.31;;;3.72;100.00
49055;BME280;35405;52.344;14.530;2023-04-07T12:40:39;101022.28;;;3.61;100.00
49055;BME280;35405;52.344;14.530;2023-04-07T12:43:05;101026.06;;;3.48;100.00
49055;BME280;35405;52.344;14.530;2023-04-07T12:45:40;101026.84;;;3.60;100.00
49055;BME280;35405;52.344;14.530;2023-04-07T12:56:46;101028.28;;;3.28;100.00
49055;BME280;35405;52.344;14.530;2023-04-07T13:11:27;101005.28;;;3.20;100.00
49055;BME280;35405;52.344;14.530;2023-04-07T13:13:53;100996.97;;;3.10;100.00
49055;BME280;35405;52.344;14.530;2023-04-07T13:19:21;100993.72;;;3.19;100.00
49055;BME280;35405;52.344;14.530;2023-04-07T13:30:40;100987.63;;;3.36;100.00
49055;BME280;35405;52.344;14.530;2023-04-07T13:33:08;100988.69;;;3.35;100.00
49055;BME280;35405;52.344;14.530;2023-04-07T13:35:34;100987.88;;;3.34;100.00
49055;BME280;35405;52.344;14.530;2023-04-07T13:40:45;100978.38;;;3.43;100.00
49055;BME280;35405;52.344;14.530;2023-04-07T13:43:13;100976.63;;;3.49;100.00
49055;BME280;35405;52.344;14.530;2023-04-07T13:45:38;100982.81;;;3.50;100.00
49055;BME280;35405;52.344;14.530;2023-04-07T13:48:04;100980.69;;;3.40;100.00
49055;BME280;35405;52.344;14.530;2023-04-07T13:50:38;100980.34;;;3.48;100.00
49055;BME280;35405;52.344;14.530;2023-04-07T13:53:03;100974.63;;;3.44;100.00
49055;BME280;35405;52.344;14.530;2023-04-07T13:55:37;100978.47;;;3.37;100.00
49055;BME280;35405;52.344;14.530;2023-04-07T13:58:05;100972.75;;;3.45;100.00
49055;BME280;35405;52.344;14.530;2023-04-07T14:03:28;100966.63;;;3.73;100.00
49055;BME280;35405;52.344;14.530;2023-04-07T14:05:56;100962.81;;;3.86;100.00
49055;BME280;35405;52.344;14.530;2023-04-07T14:08:46;100967.38;;;3.85;100.00
49055;BME280;35405;52.344;14.530;2023-04-07T14:11:20;100964.16;;;3.72;100.00
49055;BME280;35405;52.344;14.530;2023-04-07T14:13:49;100963.44;;;3.76;100.00
49055;BME280;35405;52.344;14.530;2023-04-07T14:16:15;100963.94;;;3.73;100.00
49055;BME280;35405;52.344;14.530;2023-04-07T14:21:42;100956.19;;;3.77;100.00
49055;BME280;35405;52.344;14.530;2023-04-07T14:24:15;100951.31;;;3.90;100.00
49055;BME280;35405;52.344;14.530;2023-04-07T14:27:12;100954.97;;;3.84;100.00
49055;BME280;35405;52.344;14.530;2023-04-07T14:29:53;100950.66;;;3.83;100.00
49055;BME280;35405;52.344;14.530;2023-04-07T14:32:21;100955.56;;;3.86;100.00
49055;BME280;35405;52.344;14.530;2023-04-07T14:34:53;100956.22;;;3.94;100.00
49055;BME280;35405;52.344;14.530;2023-04-07T14:37:18;100954.50;;;3.87;100.00
49055;BME280;35405;52.344;14.530;2023-04-07T14:40:04;100951.31;;;3.90;100.00
49055;BME280;35405;52.344;14.530;2023-04-07T14:42:33;100944.50;;;4.00;100.00
49055;BME280;35405;52.344;14.530;2023-04-07T14:45:01;100953.84;;;3.80;100.00
49055;BME280;35405;52.344;14.530;2023-04-07T14:47:26;100950.41;;;3.85;100.00
49055;BME280;35405;52.344;14.530;2023-04-07T14:49:52;100952.06;;;3.86;100.00
49055;BME280;35405;52.344;14.530;2023-04-07T14:52:18;100953.03;;;3.80;100.00
49055;BME280;35405;52.344;14.530;2023-04-07T14:54:44;100948.81;;;3.72;100.00
49055;BME280;35405;52.344;14.530;2023-04-07T14:57:10;100951.28;;;3.74;100.00
49055;BME280;35405;52.344;14.530;2023-04-07T15:02:24;100950.66;;;3.83;100.00
49055;BME280;35405;52.344;14.530;2023-04-07T15:04:53;100942.34;;;3.85;100.00
49055;BME280;35405;52.344;14.530;2023-04-07T15:19:26;100942.72;;;4.05;100.00
49055;BME280;35405;52.344;14.530;2023-04-07T15:25:33;100942.75;;;4.22;100.00
49055;BME280;35405;52.344;14.530;2023-04-07T15:28:07;100942.50;;;4.24;100.00
49055;BME280;35405;52.344;14.530;2023-04-07T15:33:36;100936.63;;;4.27;100.00
49055;BME280;35405;52.344;14.530;2023-04-07T15:36:04;100936.63;;;4.27;100.00
49055;BME280;35405;52.344;14.530;2023-04-07T15:38:29;100936.41;;;4.28;100.00
49055;BME280;35405;52.344;14.530;2023-04-07T15:40:55;100928.72;;;4.20;100.00
49055;BME280;35405;52.344;14.530;2023-04-07T15:43:24;100931.19;;;4.22;100.00
49055;BME280;35405;52.344;14.530;2023-04-07T15:45:52;100935.56;;;4.11;100.00
49055;BME280;35405;52.344;14.530;2023-04-07T15:48:20;100922.25;;;4.04;100.00
49055;BME280;35405;52.344;14.530;2023-04-07T15:53:55;100925.91;;;3.98;100.00
49055;BME280;35405;52.344;14.530;2023-04-07T15:56:20;100930.66;;;4.08;100.00
49055;BME280;35405;52.344;14.530;2023-04-07T16:01:58;100932.00;;;3.94;100.00
49055;BME280;35405;52.344;14.530;2023-04-07T16:04:29;100939.59;;;3.97;100.00
49055;BME280;35405;52.344;14.530;2023-04-07T16:06:55;100932.91;;;3.99;100.00
49055;BME280;35405;52.344;14.530;2023-04-07T16:09:29;100932.84;;;3.94;100.00
49055;BME280;35405;52.344;14.530;2023-04-07T16:11:58;100935.44;;;3.89;100.00
49055;BME280;35405;52.344;14.530;2023-04-07T16:21:06;100938.78;;;3.96;100.00
49055;BME280;35405;52.344;14.530;2023-04-07T16:26:49;100930.72;;;3.96;100.00
49055;BME280;35405;52.344;14.530;2023-04-07T17:02:40;100952.97;;;3.92;100.00
49055;BME280;35405;52.344;14.530;2023-04-07T17:11:16;100954.00;;;3.90;100.00
49055;BME280;35405;52.344;14.530;2023-04-07T17:16:55;100957.53;;;3.91;100.00
49055;BME280;35405;52.344;14.530;2023-04-07T17:45:01;100992.38;;;3.98;100.00
49055;BME280;35405;52.344;14.530;2023-04-07T17:57:05;101003.69;;;4.00;100.00
49055;BME280;35405;52.344;14.530;2023-04-07T18:05:34;101008.03;;;4.01;100.00
49055;BME280;35405;52.344;14.530;2023-04-07T18:08:23;101004.06;;;4.03;100.00
49055;BME280;35405;52.344;14.530;2023-04-07T18:23:16;101016.19;;;4.06;100.00
49055;BME280;35405;52.344;14.530;2023-04-07T19:55:25;101035.69;;;4.25;100.00
